Money, Mississippi
Current Conditions -  °F | °C
As of 1:55 PM on Saturday 27 Dec 2014 (Local Time) from KGNF Reporting Station
Moderate Rain Moderate Rain  
Wind Chill: 59°   Ceiling: 1100
Heat Index: 59°   Visibility: 5mi
Dew Point: 57°   Wind: 0mph
Humidity: 94%   Direction: NA
Pressure: 30.05"   Gusts: NA
Location:  33.65°N, 90.21°W
Report Text: KGNF 271955Z AUTO 00000KT 5SM RA OVC011 15/14 A3005 RMK AO2 P0001 LTG DSNT SE THRU NW
Loading
Personal Weather Stations






























Interactive Weather Map New forecast layout! Learn more

10-Day Weather Forecast

Advertisements
Track Severe Weather on mobile